Time;durP1;ratioP1;P1;durP2;ratioP2;P2;SDS_P1;SDS_P2;PMS_P1;PMS_P2;Temp;Humidity;BMP_temperature;BMP_pressure;BME280_temperature;BME280_humidity;BME280_pressure;Samples;Min_cycle;Max_cycle;Signal;HPM_P1;HPM_P2
2022/06/06 00:01:46;;;;;;;8.90;7.57;;;16.40;99.90;;;;;;5089988;28;20048;-47
2022/06/06 00:04:13;;;;;;;7.50;7.00;;;16.40;99.90;;;;;;5091753;28;20047;-46
2022/06/06 00:06:41;;;;;;;7.88;7.18;;;16.30;99.90;;;;;;5092179;28;20135;-46
2022/06/06 00:09:09;;;;;;;6.60;6.10;;;16.30;99.90;;;;;;5091798;28;20054;-46
2022/06/06 00:11:36;;;;;;;6.72;6.22;;;16.30;99.90;;;;;;5091590;28;20093;-47
2022/06/06 00:14:03;;;;;;;6.82;6.22;;;16.30;99.90;;;;;;5076070;28;20082;-46
2022/06/06 00:16:29;;;;;;;5.65;5.15;;;16.20;99.90;;;;;;5082187;28;20497;-46
2022/06/06 00:18:54;;;;;;;5.00;4.60;;;16.20;99.90;;;;;;5084226;28;20075;-46
2022/06/06 00:21:21;;;;;;;5.93;5.28;;;16.20;99.90;;;;;;5085557;28;20074;-47
2022/06/06 00:23:47;;;;;;;4.60;4.20;;;16.20;99.90;;;;;;5087233;28;20040;-46
2022/06/06 00:26:14;;;;;;;3.85;3.65;;;16.20;99.90;;;;;;5084560;28;20063;-47
2022/06/06 00:28:43;;;;;;;4.00;3.70;;;16.20;99.90;;;;;;5071893;28;20032;-46
2022/06/06 00:36:38;;;;;;;3.25;3.05;;;16.10;99.90;;;;;;5071814;28;20052;-47
2022/06/06 00:39:05;;;;;;;2.38;2.20;;;16.10;99.90;;;;;;5071859;28;20051;-46
2022/06/06 00:41:35;;;;;;;3.25;3.05;;;16.10;99.90;;;;;;5075894;28;20093;-48
2022/06/06 00:44:02;;;;;;;3.38;3.17;;;16.00;99.90;;;;;;5071023;28;20521;-46
2022/06/06 00:46:28;;;;;;;3.05;2.83;;;16.00;99.90;;;;;;5091152;28;20119;-47
2022/06/06 00:48:54;;;;;;;3.97;3.58;;;16.00;99.90;;;;;;5090876;28;20126;-46
2022/06/06 00:51:20;;;;;;;4.60;3.53;;;16.00;99.90;;;;;;5091847;28;20036;-46
2022/06/06 00:53:51;;;;;;;3.88;3.42;;;16.00;99.90;;;;;;5089478;28;20032;-46
2022/06/06 00:56:28;;;;;;;5.25;4.57;;;15.90;99.90;;;;;;5083758;28;20041;-46
2022/06/06 00:58:56;;;;;;;;;;;15.90;99.90;;;;;;5087117;28;20036;-47
2022/06/06 01:01:23;;;;;;;5.82;5.25;;;16.00;99.90;;;;;;5084590;28;19920;-47
2022/06/06 01:03:49;;;;;;;8.02;7.40;;;16.00;99.90;;;;;;5071342;28;20036;-46
2022/06/06 01:06:18;;;;;;;10.02;9.13;;;15.90;99.90;;;;;;5083123;28;20140;-46
2022/06/06 01:08:46;;;;;;;10.98;9.65;;;16.00;99.90;;;;;;5075247;28;20150;-47
2022/06/06 01:11:11;;;;;;;12.75;11.60;;;16.00;99.90;;;;;;5090505;28;20044;-46
2022/06/06 01:13:39;;;;;;;15.25;13.85;;;16.00;99.90;;;;;;5083457;28;20035;-46
2022/06/06 01:16:22;;;;;;;19.23;17.15;;;16.00;99.90;;;;;;5070824;28;20370;-46
2022/06/06 01:19:14;;;;;;;17.73;15.85;;;16.00;99.90;;;;;;5072266;28;20378;-46
2022/06/06 01:22:15;;;;;;;16.33;14.70;;;16.00;99.90;;;;;;5084282;28;20123;-48
2022/06/06 01:24:56;;;;;;;17.08;15.00;;;16.00;99.90;;;;;;5089202;28;20039;-47
2022/06/06 01:27:49;;;;;;;18.73;16.83;;;15.90;99.90;;;;;;5088169;28;20043;-46
2022/06/06 01:30:20;;;;;;;19.15;16.50;;;15.90;99.90;;;;;;5071327;28;20087;-47
2022/06/06 01:32:52;;;;;;;16.60;14.70;;;15.90;99.90;;;;;;5069301;28;20498;-48
2022/06/06 01:35:28;;;;;;;20.08;16.27;;;15.90;99.90;;;;;;5083961;28;20090;-47
2022/06/06 01:37:54;;;;;;;19.95;17.85;;;15.90;99.90;;;;;;5075629;28;20471;-46
2022/06/06 01:40:20;;;;;;;20.15;16.63;;;15.90;99.90;;;;;;5075868;28;20043;-46
2022/06/06 01:43:00;;;;;;;19.10;15.98;;;15.90;99.90;;;;;;5088363;28;20036;-46
2022/06/06 01:45:43;;;;;;;20.30;16.58;;;15.90;99.90;;;;;;5074098;28;20050;-46
2022/06/06 01:48:26;;;;;;;24.52;16.77;;;15.80;99.90;;;;;;5071159;28;20493;-46
2022/06/06 01:50:52;;;;;;;18.88;14.82;;;15.80;99.90;;;;;;5070172;28;20114;-47
2022/06/06 01:53:22;;;;;;;;;;;15.70;99.90;;;;;;5068938;28;20040;-45
2022/06/06 01:55:50;;;;;;;26.02;19.80;;;15.60;99.90;;;;;;5077858;28;19916;-46
2022/06/06 01:58:24;;;;;;;25.42;19.83;;;15.60;99.90;;;;;;5072673;28;20040;-47
2022/06/06 02:00:50;;;;;;;29.77;22.95;;;15.60;99.90;;;;;;5085076;28;20044;-45
2022/06/06 02:03:16;;;;;;;30.17;23.13;;;15.50;99.90;;;;;;5089072;28;20035;-46
2022/06/06 02:05:41;;;;;;;;;;;15.50;99.90;;;;;;5087692;28;20040;-47
2022/06/06 02:08:09;;;;;;;33.08;25.02;;;15.50;99.90;;;;;;5070002;28;19939;-47
2022/06/06 02:10:35;;;;;;;30.40;24.55;;;15.50;99.90;;;;;;5071365;28;20443;-49
2022/06/06 02:13:01;;;;;;;;;;;15.40;99.90;;;;;;5074102;28;20106;-47
2022/06/06 02:15:28;;;;;;;33.03;25.50;;;15.40;99.90;;;;;;5071973;28;19916;-47
2022/06/06 02:17:55;;;;;;;30.45;23.58;;;15.40;99.90;;;;;;5084244;28;20067;-48
2022/06/06 02:20:24;;;;;;;32.67;25.38;;;15.40;99.90;;;;;;5083156;28;20405;-46
2022/06/06 02:22:50;;;;;;;40.67;28.23;;;15.40;99.90;;;;;;5077085;28;20040;-46
2022/06/06 02:25:16;;;;;;;40.45;28.63;;;15.40;99.90;;;;;;5072721;28;20407;-45
2022/06/06 02:27:42;;;;;;;44.17;27.80;;;15.40;99.90;;;;;;5088522;28;20047;-46
2022/06/06 02:30:15;;;;;;;36.85;25.35;;;15.30;99.90;;;;;;5089936;28;20040;-46
2022/06/06 02:32:42;;;;;;;35.17;23.17;;;15.30;99.90;;;;;;5087808;28;20047;-47
2022/06/06 02:35:10;;;;;;;33.60;21.67;;;15.20;99.90;;;;;;5089245;28;20491;-46
2022/06/06 02:37:36;;;;;;;35.97;22.92;;;15.20;99.90;;;;;;5087245;28;21252;-47
2022/06/06 02:40:03;;;;;;;36.05;22.10;;;15.20;99.90;;;;;;5089979;28;20460;-47
2022/06/06 02:42:28;;;;;;;33.20;21.10;;;15.20;99.90;;;;;;5085918;28;20032;-46
2022/06/06 02:44:54;;;;;;;39.95;23.48;;;15.10;99.90;;;;;;5067883;28;20544;-46
2022/06/06 02:47:20;;;;;;;36.03;21.95;;;15.10;99.90;;;;;;5072111;28;20064;-46
2022/06/06 02:49:45;;;;;;;39.88;23.52;;;15.10;99.90;;;;;;5074716;28;20036;-46
2022/06/06 02:52:11;;;;;;;44.65;25.13;;;15.10;99.90;;;;;;5092199;28;20055;-46
2022/06/06 02:54:36;;;;;;;39.13;21.98;;;15.00;99.90;;;;;;5093125;28;20035;-47
2022/06/06 02:57:03;;;;;;;40.58;21.90;;;15.00;99.90;;;;;;5090688;28;20044;-48
2022/06/06 02:59:30;;;;;;;;;;;14.90;99.90;;;;;;5083801;28;20040;-47
2022/06/06 03:01:55;;;;;;;27.65;17.38;;;14.90;99.90;;;;;;5077451;28;20081;-46
2022/06/06 03:04:21;;;;;;;28.63;16.08;;;14.90;99.90;;;;;;5073929;28;20048;-45
2022/06/06 03:06:58;;;;;;;21.33;13.43;;;14.90;99.90;;;;;;5073143;28;20173;-47
2022/06/06 03:09:58;;;;;;;21.63;13.52;;;14.80;99.90;;;;;;5084095;28;20067;-46
2022/06/06 03:12:49;;;;;;;17.85;12.43;;;14.80;99.90;;;;;;5092183;28;20107;-47
2022/06/06 03:20:46;;;;;;;23.02;12.65;;;14.80;99.90;;;;;;5092998;28;20342;-46
2022/06/06 03:22:00;;;;;;;22.42;13.85;;;14.60;99.90;;;;;;5075412;28;20072;-46
2022/06/06 03:25:05;;;;;;;25.60;14.10;;;14.60;99.90;;;;;;5081453;28;20119;-45
2022/06/06 03:27:45;;;;;;;22.27;12.95;;;14.60;99.90;;;;;;5073740;28;20440;-46
2022/06/06 03:30:17;;;;;;;21.10;13.18;;;14.60;99.90;;;;;;5074540;28;20386;-46
2022/06/06 03:33:17;;;;;;;26.52;15.43;;;14.50;99.90;;;;;;5091408;28;20443;-46
2022/06/06 03:36:09;;;;;;;29.55;16.15;;;14.50;99.90;;;;;;5080894;28;20097;-46
2022/06/06 03:39:02;;;;;;;28.52;15.55;;;14.50;99.90;;;;;;5072893;28;20080;-47
2022/06/06 03:41:43;;;;;;;23.35;15.68;;;14.50;99.90;;;;;;5076834;28;20129;-47
2022/06/06 03:44:56;;;;;;;26.33;16.55;;;14.50;99.90;;;;;;5072067;28;20511;-47
2022/06/06 03:47:28;;;;;;;31.20;15.40;;;14.40;99.90;;;;;;5052885;28;20608;-46
2022/06/06 03:50:19;;;;;;;26.05;15.05;;;14.40;99.90;;;;;;5072555;28;20425;-45
2022/06/06 03:52:50;;;;;;;29.70;15.52;;;14.40;99.90;;;;;;5082724;28;20039;-49
2022/06/06 03:55:46;;;;;;;29.48;16.52;;;14.50;99.90;;;;;;5090109;28;20093;-46
2022/06/06 03:58:16;;;;;;;29.42;15.90;;;14.40;99.90;;;;;;5070611;28;20040;-46
2022/06/06 04:00:45;;;;;;;26.80;15.18;;;14.40;99.90;;;;;;5073544;28;20052;-46
2022/06/06 04:03:12;;;;;;;26.05;14.52;;;14.40;99.90;;;;;;5079971;28;20040;-47
2022/06/06 04:05:38;;;;;;;24.90;14.23;;;14.40;99.90;;;;;;5089351;28;20127;-46
2022/06/06 04:08:05;;;;;;;23.65;13.65;;;14.40;99.90;;;;;;5089844;28;20043;-46
2022/06/06 04:10:35;;;;;;;;;;;14.40;99.90;;;;;;5079275;28;20050;-46
2022/06/06 04:13:10;;;;;;;23.30;13.57;;;14.40;99.90;;;;;;5074565;28;19923;-47
2022/06/06 04:15:52;;;;;;;24.98;14.07;;;14.40;99.90;;;;;;5084827;28;20040;-47
2022/06/06 04:18:35;;;;;;;26.48;16.20;;;14.40;99.90;;;;;;5073064;28;20036;-46
2022/06/06 04:21:32;;;;;;;22.80;14.20;;;14.40;99.90;;;;;;5070526;28;20087;-47
2022/06/06 04:24:28;;;;;;;24.08;15.23;;;14.40;99.90;;;;;;5080899;28;20036;-48
2022/06/06 04:27:04;;;;;;;26.65;15.73;;;14.40;99.90;;;;;;5091607;28;20508;-47
2022/06/06 04:30:00;;;;;;;28.98;16.15;;;14.40;99.90;;;;;;5091043;28;20520;-46
2022/06/06 04:32:47;;;;;;;25.45;15.38;;;14.40;99.90;;;;;;5091431;28;20055;-46
2022/06/06 04:35:39;;;;;;;23.33;14.57;;;14.40;99.90;;;;;;5090125;28;20447;-46
2022/06/06 04:38:07;;;;;;;21.50;13.65;;;14.40;99.90;;;;;;5091857;28;20051;-47
2022/06/06 04:40:46;;;;;;;19.45;12.70;;;14.40;99.90;;;;;;5091883;28;20111;-46
2022/06/06 04:43:30;;;;;;;20.70;15.00;;;14.50;99.90;;;;;;5090129;28;20036;-46
2022/06/06 04:46:11;;;;;;;23.35;15.25;;;14.50;99.90;;;;;;5080996;28;20354;-47
2022/06/06 04:48:39;;;;;;;23.50;15.40;;;14.50;99.90;;;;;;5071786;28;20362;-47
2022/06/06 04:51:06;;;;;;;23.83;13.43;;;14.50;99.90;;;;;;5071171;28;20032;-46
2022/06/06 04:53:38;;;;;;;23.40;12.55;;;14.50;99.90;;;;;;5070485;28;20040;-46
2022/06/06 04:56:05;;;;;;;17.42;12.27;;;14.50;99.90;;;;;;5076821;28;20236;-47
2022/06/06 04:58:34;;;;;;;16.80;10.45;;;14.50;99.90;;;;;;5071737;28;20531;-46
2022/06/06 05:01:01;;;;;;;18.13;10.25;;;14.50;99.90;;;;;;5073535;28;20048;-46
2022/06/06 05:03:27;;;;;;;16.17;11.57;;;14.60;99.90;;;;;;5069960;28;20082;-47
2022/06/06 05:06:11;;;;;;;15.70;10.45;;;14.60;99.90;;;;;;5074596;28;20386;-45
2022/06/06 05:09:11;;;;;;;14.13;11.50;;;14.60;99.90;;;;;;5090651;28;20036;-47
2022/06/06 05:11:52;;;;;;;16.90;11.55;;;14.60;99.90;;;;;;5083740;28;20044;-47
2022/06/06 05:14:43;;;;;;;18.25;11.45;;;14.50;99.90;;;;;;5090206;28;20397;-46
2022/06/06 05:17:32;;;;;;;21.25;13.13;;;14.60;99.90;;;;;;5061869;28;20044;-46
2022/06/06 05:20:40;;;;;;;21.88;13.52;;;14.50;99.90;;;;;;5071914;28;20389;-48
2022/06/06 05:23:19;;;;;;;23.23;14.90;;;14.50;99.90;;;;;;5080967;28;20040;-47
2022/06/06 05:26:04;;;;;;;32.65;16.88;;;14.50;99.90;;;;;;5073652;28;20032;-47
2022/06/06 05:28:48;;;;;;;29.00;16.35;;;14.50;99.90;;;;;;5072085;28;20398;-47
2022/06/06 05:31:16;;;;;;;24.35;15.52;;;14.50;99.90;;;;;;5069946;28;20115;-47
2022/06/06 05:33:55;;;;;;;26.98;16.65;;;14.60;99.90;;;;;;5073309;28;20093;-47
2022/06/06 05:36:23;;;;;;;25.30;16.80;;;14.50;99.90;;;;;;5070760;28;20037;-47
2022/06/06 05:39:12;;;;;;;25.00;16.88;;;14.60;99.90;;;;;;5080206;28;20474;-48
2022/06/06 05:41:54;;;;;;;30.30;16.90;;;14.60;99.90;;;;;;5080131;28;20509;-47
2022/06/06 05:44:37;;;;;;;25.15;16.67;;;14.60;99.90;;;;;;5069337;28;20044;-46
2022/06/06 05:47:33;;;;;;;29.05;17.20;;;14.60;99.90;;;;;;5070380;28;20036;-46
2022/06/06 05:50:33;;;;;;;28.75;16.77;;;14.60;99.90;;;;;;5082047;28;20181;-46
2022/06/06 05:53:20;;;;;;;27.48;16.15;;;14.60;99.90;;;;;;5086784;28;20082;-46
2022/06/06 05:56:22;;;;;;;27.38;16.52;;;14.70;99.90;;;;;;5086707;28;20044;-46
2022/06/06 05:59:19;;;;;;;22.02;14.93;;;14.70;99.90;;;;;;5085475;28;20557;-45
2022/06/06 06:02:05;;;;;;;23.30;14.80;;;14.70;99.90;;;;;;5057142;28;20413;-47
2022/06/06 06:05:08;;;;;;;19.70;14.15;;;14.80;99.90;;;;;;5086314;28;20541;-45
2022/06/06 06:07:43;;;;;;;20.15;14.02;;;14.80;99.90;;;;;;5089585;28;20765;-48
2022/06/06 06:10:15;;;;;;;21.08;14.05;;;14.90;99.90;;;;;;5081387;28;20041;-47
2022/06/06 06:12:47;;;;;;;19.83;14.23;;;14.90;99.90;;;;;;5089275;28;20416;-47
2022/06/06 06:15:36;;;;;;;22.20;14.15;;;14.90;99.90;;;;;;5068992;28;20397;-47
2022/06/06 06:18:07;;;;;;;20.95;12.98;;;15.00;99.90;;;;;;5084449;28;20051;-47
2022/06/06 06:20:38;;;;;;;20.95;13.68;;;15.10;99.90;;;;;;5081364;28;20036;-47
2022/06/06 06:23:06;;;;;;;22.30;13.80;;;15.10;99.90;;;;;;5087568;28;20051;-47
2022/06/06 06:25:34;;;;;;;25.80;15.32;;;15.10;99.90;;;;;;5076679;28;20039;-47
2022/06/06 06:28:07;;;;;;;22.80;13.55;;;15.20;99.90;;;;;;5071054;28;20045;-47
2022/06/06 06:31:00;;;;;;;21.60;12.85;;;15.10;99.90;;;;;;5070896;28;20048;-47
2022/06/06 06:33:40;;;;;;;23.50;13.90;;;15.10;99.90;;;;;;5067727;28;20486;-47
2022/06/06 06:36:36;;;;;;;20.13;13.38;;;15.10;99.90;;;;;;5070070;28;20045;-46
2022/06/06 06:39:13;;;;;;;27.52;14.80;;;15.10;99.90;;;;;;5069343;28;20040;-47
2022/06/06 06:41:57;;;;;;;21.08;13.55;;;15.10;99.90;;;;;;5081642;28;20097;-48
2022/06/06 06:44:29;;;;;;;31.55;16.45;;;15.20;99.90;;;;;;5089119;28;20044;-47
2022/06/06 06:46:57;;;;;;;21.20;14.13;;;15.20;99.90;;;;;;5089280;28;20044;-48
2022/06/06 06:49:39;;;;;;;19.17;12.93;;;15.20;99.90;;;;;;5082866;28;20068;-50
2022/06/06 06:52:27;;;;;;;22.13;13.55;;;15.20;99.90;;;;;;5083204;28;20484;-47
2022/06/06 06:55:18;;;;;;;25.35;14.38;;;15.10;99.90;;;;;;5069201;28;20083;-48
2022/06/06 06:58:03;;;;;;;21.60;14.93;;;15.10;99.90;;;;;;5070911;28;20044;-47
2022/06/06 07:01:00;;;;;;;24.77;14.95;;;15.10;99.90;;;;;;5075492;28;20040;-47
2022/06/06 07:09:41;;;;;;;29.30;16.58;;;15.10;99.90;;;;;;5089313;28;20193;-47
2022/06/06 07:12:35;;;;;;;32.25;17.40;;;15.10;99.90;;;;;;5088817;28;20036;-47
2022/06/06 07:15:20;;;;;;;29.52;18.70;;;15.20;99.90;;;;;;5088615;28;20032;-48
2022/06/06 07:17:55;;;;;;;30.88;18.67;;;15.30;99.90;;;;;;5089465;28;20050;-48
2022/06/06 07:20:21;;;;;;;31.35;19.30;;;15.40;99.90;;;;;;5089240;28;20378;-47
2022/06/06 07:23:04;;;;;;;33.65;20.33;;;15.60;99.90;;;;;;5079162;28;20058;-49
2022/06/06 07:25:39;;;;;;;29.60;17.70;;;15.70;99.90;;;;;;5071343;28;20048;-47
2022/06/06 07:28:25;;;;;;;34.38;18.90;;;15.80;99.90;;;;;;5070354;28;20036;-48
2022/06/06 07:31:02;;;;;;;30.48;18.17;;;15.90;99.90;;;;;;5068677;28;20055;-48
2022/06/06 07:33:47;;;;;;;35.80;20.02;;;15.90;99.90;;;;;;5071517;28;20037;-50
2022/06/06 07:36:44;;;;;;;31.85;19.58;;;15.90;99.90;;;;;;5092874;28;20043;-47
2022/06/06 07:39:28;;;;;;;36.00;20.90;;;15.90;99.90;;;;;;5093199;28;20071;-47
2022/06/06 07:42:19;;;;;;;29.85;20.65;;;15.90;99.90;;;;;;5092222;28;20580;-48
2022/06/06 07:45:06;;;;;;;26.17;18.40;;;16.10;99.90;;;;;;5089004;28;20040;-47
2022/06/06 07:47:54;;;;;;;20.57;15.10;;;16.20;99.90;;;;;;5085862;28;20036;-48
2022/06/06 07:50:24;;;;;;;23.73;17.17;;;16.20;99.90;;;;;;5081088;28;20083;-47
2022/06/06 07:53:13;;;;;;;24.08;15.45;;;16.10;99.90;;;;;;5079420;28;20060;-48
2022/06/06 07:56:00;;;;;;;18.00;12.85;;;16.10;99.90;;;;;;5090078;28;20082;-48
2022/06/06 07:58:47;;;;;;;12.65;9.65;;;16.10;99.90;;;;;;5092892;28;20127;-47
2022/06/06 08:01:15;;;;;;;17.70;9.35;;;16.30;99.90;;;;;;5071996;28;20037;-47
2022/06/06 08:04:05;;;;;;;15.48;9.80;;;16.40;99.90;;;;;;5071610;28;20052;-47
2022/06/06 08:06:48;;;;;;;12.77;8.73;;;16.50;99.90;;;;;;5085371;28;20040;-48
2022/06/06 08:09:59;;;;;;;8.82;6.20;;;16.60;99.90;;;;;;5089877;28;20525;-47
2022/06/06 08:13:02;;;;;;;11.75;5.95;;;16.60;99.90;;;;;;5060319;28;20097;-47
2022/06/06 08:15:52;;;;;;;7.50;4.20;;;16.70;99.90;;;;;;5076298;28;20131;-47
2022/06/06 08:18:39;;;;;;;8.32;3.97;;;16.70;99.90;;;;;;5078348;28;20370;-47
2022/06/06 08:21:28;;;;;;;7.38;4.15;;;16.90;99.90;;;;;;5081094;28;20032;-49
2022/06/06 08:23:58;;;;;;;8.38;4.38;;;16.80;99.90;;;;;;5071296;28;20409;-48
2022/06/06 08:26:26;;;;;;;5.07;4.45;;;16.90;99.90;;;;;;5071773;28;20067;-48
2022/06/06 08:28:53;;;;;;;6.35;3.85;;;16.90;99.90;;;;;;5088274;28;20050;-47
2022/06/06 08:31:20;;;;;;;6.82;3.80;;;16.90;99.90;;;;;;5056966;28;20048;-46
2022/06/06 08:33:46;;;;;;;5.60;3.13;;;16.80;99.90;;;;;;5077267;28;20040;-47
2022/06/06 08:36:27;;;;;;;4.85;2.35;;;16.70;99.90;;;;;;5092097;28;20047;-47
2022/06/06 08:39:11;;;;;;;4.47;2.65;;;16.60;99.90;;;;;;5078729;28;20519;-47
2022/06/06 08:42:22;;;;;;;4.00;2.50;;;16.50;99.90;;;;;;5089648;28;20089;-48
2022/06/06 08:45:08;;;;;;;2.92;1.80;;;16.50;99.90;;;;;;5065476;28;20059;-48
2022/06/06 08:48:04;;;;;;;5.28;2.03;;;16.50;99.90;;;;;;5071548;28;20066;-49
2022/06/06 08:51:04;;;;;;;3.45;1.38;;;16.60;99.90;;;;;;5075510;28;20040;-48
2022/06/06 08:53:46;;;;;;;4.53;1.10;;;16.70;99.90;;;;;;5083949;28;20028;-47
2022/06/06 08:56:31;;;;;;;5.13;1.60;;;16.70;99.90;;;;;;5073791;28;20058;-47
2022/06/06 08:59:38;;;;;;;2.78;1.10;;;16.70;99.90;;;;;;5072620;28;20462;-47
2022/06/06 09:02:25;;;;;;;3.00;1.38;;;16.80;99.90;;;;;;5072120;28;20125;-47
2022/06/06 09:05:05;;;;;;;4.45;1.20;;;17.00;99.90;;;;;;5087570;28;20119;-48
2022/06/06 09:07:45;;;;;;;2.50;1.38;;;17.00;99.90;;;;;;5080585;28;20052;-47
2022/06/06 09:10:45;;;;;;;5.05;1.58;;;17.00;99.90;;;;;;5072233;28;20040;-48
2022/06/06 09:13:48;;;;;;;4.18;1.77;;;16.90;99.90;;;;;;5072795;28;20568;-47
2022/06/06 09:16:45;;;;;;;4.20;2.35;;;16.80;99.90;;;;;;5090360;28;20042;-47
2022/06/06 09:19:28;;;;;;;3.33;1.05;;;16.90;99.90;;;;;;5078830;28;20157;-47
2022/06/06 09:22:00;;;;;;;4.05;1.08;;;16.90;99.90;;;;;;5089027;28;20035;-48
2022/06/06 09:24:47;;;;;;;4.55;1.27;;;17.00;99.90;;;;;;5075764;28;20039;-49
2022/06/06 09:27:31;;;;;;;;;;;17.10;99.90;;;;;;5074048;28;20072;-48
2022/06/06 09:30:19;;;;;;;4.93;1.88;;;17.30;99.90;;;;;;5070619;28;20057;-48
2022/06/06 09:33:25;;;;;;;4.13;2.03;;;17.40;99.90;;;;;;5070442;28;20037;-51
2022/06/06 09:36:23;;;;;;;3.60;1.52;;;17.50;99.90;;;;;;5070249;28;20052;-48
2022/06/06 09:39:32;;;;;;;5.57;1.58;;;17.40;99.90;;;;;;5022222;28;20103;-48
2022/06/06 09:42:37;;;;;;;2.55;1.13;;;17.50;99.90;;;;;;5037621;28;20042;-47
2022/06/06 09:45:19;;;;;;;4.13;1.48;;;17.60;99.90;;;;;;5009162;28;20049;-48
2022/06/06 09:48:22;;;;;;;6.53;1.25;;;17.50;99.90;;;;;;5028491;28;20153;-47
2022/06/06 09:50:50;;;;;;;3.53;2.17;;;17.30;99.90;;;;;;5028144;28;20047;-47
2022/06/06 09:53:40;;;;;;;4.88;0.85;;;17.20;99.90;;;;;;5041290;28;20655;-47
2022/06/06 09:59:51;;;;;;;5.50;1.05;;;16.80;99.90;;;;;;5044928;28;20048;-47
2022/06/06 10:02:31;;;;;;;3.50;1.30;;;16.90;99.90;;;;;;5044547;28;20049;-47
2022/06/06 10:05:21;;;;;;;6.05;2.45;;;17.00;99.90;;;;;;5042149;28;20045;-46
2022/06/06 10:08:26;;;;;;;2.67;1.38;;;17.20;99.90;;;;;;5047474;28;20441;-47
2022/06/06 10:11:31;;;;;;;1.90;1.25;;;17.30;99.90;;;;;;5047399;28;20033;-47
2022/06/06 10:14:35;;;;;;;3.70;1.38;;;17.50;99.90;;;;;;5010899;28;20128;-46
2022/06/06 10:17:28;;;;;;;1.63;0.98;;;17.50;99.90;;;;;;5059522;28;20051;-48
2022/06/06 10:20:24;;;;;;;4.57;1.35;;;17.60;99.90;;;;;;5070024;28;20044;-47
2022/06/06 10:23:43;;;;;;;4.57;1.42;;;17.60;99.90;;;;;;5068955;28;20032;-47
2022/06/06 10:26:23;;;;;;;2.38;0.70;;;17.70;99.90;;;;;;5077072;28;20040;-47
2022/06/06 10:30:10;;;;;;;4.18;1.02;;;17.80;99.90;;;;;;5080021;28;20056;-47
2022/06/06 10:32:52;;;;;;;1.88;0.60;;;17.90;99.90;;;;;;5046215;28;20051;-48
2022/06/06 10:35:32;;;;;;;1.95;0.40;;;18.00;99.90;;;;;;5015816;28;20045;-47
2022/06/06 10:38:17;;;;;;;5.47;0.52;;;18.00;99.90;;;;;;5041009;28;20077;-45
2022/06/06 10:41:20;;;;;;;2.28;0.65;;;18.10;99.00;;;;;;4988714;28;20050;-47
2022/06/06 10:43:58;;;;;;;3.22;0.30;;;18.10;99.30;;;;;;5011405;28;20285;-47
2022/06/06 10:46:40;;;;;;;1.20;0.30;;;18.20;99.80;;;;;;5029228;28;20041;-46
2022/06/06 10:49:05;;;;;;;2.08;0.30;;;18.20;98.50;;;;;;5028794;28;20053;-46
2022/06/06 10:51:49;;;;;;;3.95;0.40;;;18.20;98.60;;;;;;5046987;28;20048;-46
2022/06/06 10:54:33;;;;;;;4.60;0.40;;;18.20;99.70;;;;;;5046035;28;20045;-47
2022/06/06 10:57:46;;;;;;;4.70;0.25;;;18.30;99.50;;;;;;5031540;28;20049;-47
2022/06/06 11:00:23;;;;;;;3.75;0.20;;;18.40;98.10;;;;;;5035194;28;20064;-46
2022/06/06 11:03:33;;;;;;;1.35;0.35;;;18.40;97.90;;;;;;5022897;28;20053;-46
2022/06/06 11:06:43;;;;;;;3.00;0.20;;;18.40;97.70;;;;;;5030355;28;20037;-46
2022/06/06 11:09:36;;;;;;;3.47;0.20;;;18.40;98.30;;;;;;5047887;28;20044;-46
2022/06/06 11:12:25;;;;;;;1.40;0.30;;;18.60;98.90;;;;;;5091513;28;20036;-47
2022/06/06 11:14:52;;;;;;;0.52;0.40;;;18.70;96.90;;;;;;5073039;28;20036;-46
2022/06/06 11:17:58;;;;;;;2.17;0.20;;;18.80;97.50;;;;;;5081004;28;20044;-47
2022/06/06 11:20:55;;;;;;;1.85;0.25;;;18.80;95.90;;;;;;5079324;28;20041;-46
2022/06/06 11:23:28;;;;;;;3.73;0.30;;;18.80;96.60;;;;;;5071984;28;20128;-47
2022/06/06 11:26:13;;;;;;;2.28;0.30;;;18.70;95.70;;;;;;5078628;28;20044;-47
2022/06/06 11:28:54;;;;;;;1.17;0.20;;;18.50;95.90;;;;;;5091265;28;20040;-47
2022/06/06 11:31:49;;;;;;;1.67;0.30;;;18.60;96.40;;;;;;5090473;28;21324;-46
2022/06/06 11:34:54;;;;;;;1.13;0.55;;;18.70;97.60;;;;;;5088988;28;20047;-46
2022/06/06 11:37:32;;;;;;;4.00;0.30;;;18.90;97.60;;;;;;5091794;28;20481;-46
2022/06/06 11:40:45;;;;;;;2.45;0.30;;;18.90;95.90;;;;;;5091391;28;20044;-47
2022/06/06 11:43:32;;;;;;;1.73;0.45;;;19.10;97.50;;;;;;5090163;28;20600;-47
2022/06/06 11:46:17;;;;;;;5.10;0.38;;;19.10;96.30;;;;;;5070480;28;20047;-48
2022/06/06 11:48:51;;;;;;;0.95;0.20;;;19.10;96.20;;;;;;5084134;28;20048;-47
2022/06/06 11:51:38;;;;;;;3.00;0.40;;;19.00;96.60;;;;;;5073693;28;20037;-46
2022/06/06 11:54:34;;;;;;;1.95;0.43;;;18.90;95.70;;;;;;5092126;28;20040;-46
2022/06/06 11:57:38;;;;;;;4.35;0.20;;;18.80;95.80;;;;;;5077547;28;20080;-46
2022/06/06 12:00:55;;;;;;;1.25;0.30;;;18.70;96.60;;;;;;5073694;28;20048;-46
2022/06/06 12:03:52;;;;;;;3.90;0.30;;;18.80;96.60;;;;;;5071056;28;20068;-46
2022/06/06 12:06:42;;;;;;;2.65;0.60;;;18.70;95.40;;;;;;5073233;28;20096;-46
2022/06/06 12:09:17;;;;;;;3.10;0.30;;;18.50;96.80;;;;;;5072357;28;20637;-47
2022/06/06 12:12:06;;;;;;;1.65;0.40;;;18.40;97.40;;;;;;5079469;28;20101;-47
2022/06/06 12:15:09;;;;;;;0.57;0.30;;;18.20;97.80;;;;;;5075094;28;20040;-46
2022/06/06 12:17:43;;;;;;;1.13;0.63;;;18.10;98.00;;;;;;5075577;28;21314;-46
2022/06/06 12:20:14;;;;;;;0.82;0.25;;;18.10;98.60;;;;;;5090249;28;20119;-46
2022/06/06 12:22:55;;;;;;;0.30;0.20;;;18.20;98.40;;;;;;5089880;28;20485;-47
2022/06/06 12:25:46;;;;;;;3.83;0.25;;;18.10;98.20;;;;;;5092199;28;20040;-46
2022/06/06 12:28:43;;;;;;;4.68;0.70;;;18.10;98.90;;;;;;5090416;28;20048;-46
2022/06/06 12:31:26;;;;;;;6.43;0.83;;;17.70;99.90;;;;;;5084134;28;20033;-46
2022/06/06 12:34:19;;;;;;;3.17;0.50;;;17.30;99.90;;;;;;5079078;28;20297;-46
2022/06/06 12:37:01;;;;;;;1.95;0.50;;;17.00;99.90;;;;;;5060523;28;20049;-46
2022/06/06 12:39:29;;;;;;;1.48;0.35;;;16.80;99.90;;;;;;5081538;28;20035;-48
2022/06/06 12:42:11;;;;;;;1.38;0.50;;;16.60;99.90;;;;;;5085842;28;20042;-46
2022/06/06 12:44:57;;;;;;;2.17;0.43;;;16.60;99.90;;;;;;5070866;28;20052;-46
2022/06/06 12:47:49;;;;;;;0.95;0.40;;;16.60;99.90;;;;;;5071501;28;20098;-47
2022/06/06 12:50:29;;;;;;;1.05;0.40;;;16.50;99.90;;;;;;5080132;28;20404;-46
2022/06/06 12:53:13;;;;;;;2.65;0.70;;;16.60;99.90;;;;;;5088694;28;20413;-46
2022/06/06 12:56:23;;;;;;;1.45;0.30;;;16.60;99.90;;;;;;5086486;28;20443;-45
2022/06/06 12:58:55;;;;;;;0.57;0.40;;;16.60;99.90;;;;;;5090943;28;20042;-46
2022/06/06 13:01:53;;;;;;;1.27;0.35;;;16.60;99.90;;;;;;5081000;28;20054;-47
2022/06/06 13:04:41;;;;;;;2.55;0.43;;;16.60;99.90;;;;;;5078757;28;20123;-46
2022/06/06 13:07:18;;;;;;;1.95;0.68;;;16.50;99.90;;;;;;5091007;28;20195;-46
2022/06/06 13:10:06;;;;;;;2.35;0.60;;;16.40;99.90;;;;;;5086529;28;20032;-45
2022/06/06 13:13:01;;;;;;;3.20;0.80;;;16.30;99.90;;;;;;5080200;28;20520;-47
2022/06/06 13:15:44;;;;;;;0.98;0.88;;;16.30;99.90;;;;;;5084446;28;20043;-46
2022/06/06 13:18:48;;;;;;;1.92;0.98;;;16.20;99.90;;;;;;5078327;28;20043;-47
2022/06/06 13:21:39;;;;;;;1.60;0.40;;;16.30;99.90;;;;;;5039338;28;20040;-47
2022/06/06 13:24:07;;;;;;;1.80;0.63;;;16.30;99.90;;;;;;5069528;28;20120;-47
2022/06/06 13:26:50;;;;;;;0.77;0.20;;;16.40;99.90;;;;;;5087187;28;20124;-46
2022/06/06 13:29:36;;;;;;;1.35;0.30;;;16.40;99.90;;;;;;5078917;28;20036;-47
2022/06/06 13:32:17;;;;;;;0.63;0.22;;;16.50;99.90;;;;;;5078182;28;20085;-48
2022/06/06 13:34:55;;;;;;;0.85;0.20;;;16.50;99.90;;;;;;5078823;28;20040;-46
2022/06/06 13:37:38;;;;;;;1.75;0.20;;;16.60;99.90;;;;;;5072740;28;20423;-47
2022/06/06 13:40:23;;;;;;;0.77;0.20;;;16.60;99.90;;;;;;5075514;28;20031;-46
2022/06/06 13:43:28;;;;;;;1.52;0.20;;;16.60;99.90;;;;;;5073551;28;20053;-46
2022/06/06 13:46:26;;;;;;;2.35;0.20;;;16.60;99.90;;;;;;5074147;28;20049;-46
2022/06/06 13:49:31;;;;;;;1.63;0.30;;;16.70;99.90;;;;;;5074373;28;20040;-46
2022/06/06 13:52:11;;;;;;;1.10;0.32;;;16.70;99.90;;;;;;5060230;28;20076;-46
2022/06/06 13:54:38;;;;;;;0.60;0.40;;;16.70;99.90;;;;;;5085147;28;20055;-47
2022/06/06 13:57:28;;;;;;;2.55;0.50;;;16.60;99.90;;;;;;5074517;28;20037;-46
2022/06/06 14:00:04;;;;;;;1.33;0.63;;;16.50;99.90;;;;;;5073341;28;20405;-46
2022/06/06 14:02:52;;;;;;;2.80;1.13;;;16.50;99.90;;;;;;5074249;28;20501;-46
2022/06/06 14:05:46;;;;;;;;;;;16.40;99.90;;;;;;5082208;28;20106;-46
2022/06/06 14:08:16;;;;;;;4.13;1.58;;;16.30;99.90;;;;;;5063341;28;19935;-46
2022/06/06 14:10:54;;;;;;;3.85;1.88;;;16.20;99.90;;;;;;5069049;28;20044;-48
2022/06/06 14:13:53;;;;;;;1.80;1.60;;;16.10;99.90;;;;;;5063183;28;20067;-45